Time;durP1;ratioP1;P1;durP2;ratioP2;P2;SDS_P1;SDS_P2;PMS_P1;PMS_P2;Temp;Humidity;BMP_temperature;BMP_pressure;BME280_temperature;BME280_humidity;BME280_pressure;Samples;Min_cycle;Max_cycle;Signal;HPM_P1;HPM_P2
2023/01/06 00:01:10;;;;;;;18.52;6.43;;;;;;;7.81;100.00;96952.47;5061395;28;20060;-81
2023/01/06 00:03:37;;;;;;;24.55;7.25;;;;;;;7.57;100.00;96944.31;5053915;28;20041;-82
2023/01/06 00:06:06;;;;;;;19.73;6.75;;;;;;;7.51;100.00;96934.56;5058900;28;20045;-81
2023/01/06 00:08:34;;;;;;;32.40;7.18;;;;;;;7.47;100.00;96939.78;5057467;28;20523;-80
2023/01/06 00:11:05;;;;;;;17.88;6.22;;;;;;;7.42;100.00;96942.53;5050637;28;20064;-81
2023/01/06 00:13:31;;;;;;;32.47;7.50;;;;;;;7.40;100.00;96938.47;5055907;28;20063;-79
2023/01/06 00:16:03;;;;;;;20.55;6.53;;;;;;;7.37;100.00;96925.50;5059940;28;20053;-80
2023/01/06 00:18:30;;;;;;;27.25;6.63;;;;;;;7.36;100.00;96927.41;5062853;28;20052;-78
2023/01/06 00:20:58;;;;;;;23.15;6.90;;;;;;;7.34;100.00;96924.16;5062719;28;20045;-80
2023/01/06 00:23:25;;;;;;;25.38;6.55;;;;;;;7.38;100.00;96919.78;5061937;28;20098;-80
2023/01/06 00:25:52;;;;;;;25.40;5.88;;;;;;;7.43;100.00;96916.22;5068192;28;20048;-83
2023/01/06 00:28:19;;;;;;;17.33;5.30;;;;;;;7.43;100.00;96911.63;5071236;28;20124;-80
2023/01/06 00:30:46;;;;;;;24.00;6.03;;;;;;;7.39;100.00;96913.28;5075309;28;20052;-81
2023/01/06 00:33:14;;;;;;;25.35;5.90;;;;;;;7.35;100.00;96919.53;5074757;28;20053;-80
2023/01/06 00:35:42;;;;;;;34.60;6.55;;;;;;;7.33;100.00;96917.94;5075110;28;20512;-79
2023/01/06 00:38:09;;;;;;;9.38;4.20;;;;;;;7.29;100.00;96916.88;5091533;28;20024;-80
2023/01/06 00:40:36;;;;;;;23.38;5.82;;;;;;;7.28;100.00;96909.03;5073830;28;20047;-81
2023/01/06 00:43:06;;;;;;;18.63;4.95;;;;;;;7.25;100.00;96915.00;5067548;28;20056;-80
2023/01/06 00:45:32;;;;;;;21.65;5.80;;;;;;;7.21;100.00;96909.34;5073523;28;20045;-82
2023/01/06 00:47:59;;;;;;;16.90;4.85;;;;;;;7.15;100.00;96909.66;5067196;28;20049;-80
2023/01/06 00:50:28;;;;;;;16.17;5.03;;;;;;;7.16;100.00;96911.31;5066707;28;20041;-81
2023/01/06 00:52:56;;;;;;;11.80;4.47;;;;;;;7.16;100.00;96908.59;5055901;28;20072;-80
2023/01/06 00:55:23;;;;;;;18.52;5.35;;;;;;;7.17;100.00;96902.06;5066656;28;20072;-81
2023/01/06 00:57:51;;;;;;;9.95;4.28;;;;;;;7.20;100.00;96896.88;5070275;28;20093;-82
2023/01/06 01:00:18;;;;;;;16.55;4.65;;;;;;;7.21;100.00;96898.53;5076324;28;20049;-80
2023/01/06 01:02:45;;;;;;;15.15;4.70;;;;;;;7.21;100.00;96895.00;5077606;28;20035;-80
2023/01/06 01:05:12;;;;;;;11.85;4.90;;;;;;;7.16;100.00;96900.47;5066965;28;20052;-80
2023/01/06 01:07:40;;;;;;;11.82;4.45;;;;;;;7.14;100.00;96902.63;5091043;28;20051;-80
2023/01/06 01:10:08;;;;;;;11.20;4.93;;;;;;;7.14;100.00;96891.78;5076256;28;20060;-80
2023/01/06 01:12:36;;;;;;;10.07;4.60;;;;;;;7.14;100.00;96891.78;5079542;28;20066;-80
2023/01/06 01:15:03;;;;;;;10.98;5.00;;;;;;;7.13;100.00;96896.41;5076132;28;20059;-79
2023/01/06 01:17:33;;;;;;;9.23;4.38;;;;;;;7.12;100.00;96888.56;5075721;28;20502;-80
2023/01/06 01:20:00;;;;;;;13.52;4.88;;;;;;;7.11;100.00;96893.19;5072717;28;20100;-79
2023/01/06 01:22:28;;;;;;;10.90;4.68;;;;;;;7.11;100.00;96887.75;5074512;28;20037;-81
2023/01/06 01:24:57;;;;;;;23.08;6.38;;;;;;;7.10;100.00;96890.75;5066196;28;20079;-80
2023/01/06 01:27:23;;;;;;;11.70;4.93;;;;;;;7.10;100.00;96885.31;5074247;28;20048;-80
2023/01/06 01:29:50;;;;;;;14.13;5.07;;;;;;;7.11;100.00;96882.34;5073789;28;20060;-81
2023/01/06 01:32:16;;;;;;;24.77;6.47;;;;;;;7.05;100.00;96887.00;5072669;28;20052;-81
2023/01/06 01:34:43;;;;;;;20.00;5.90;;;;;;;7.10;100.00;96890.75;5061035;28;20445;-82
2023/01/06 01:37:09;;;;;;;13.18;4.97;;;;;;;7.10;100.00;96890.75;5055174;28;20048;-80
2023/01/06 01:39:36;;;;;;;21.80;6.38;;;;;;;7.11;100.00;96889.66;5058929;28;20507;-80
2023/01/06 01:42:04;;;;;;;21.13;5.78;;;;;;;7.11;100.00;96886.97;5056330;28;20455;-80
2023/01/06 01:45:02;;;;;;;18.05;6.38;;;;;;;7.12;100.00;96889.38;5058567;28;20052;-80
2023/01/06 01:47:47;;;;;;;17.42;6.88;;;;;;;7.10;100.00;96890.75;4969780;28;20072;-80
2023/01/06 01:50:23;;;;;;;22.67;7.00;;;;;;;7.09;100.00;96889.13;5043985;28;20041;-80
2023/01/06 01:52:53;;;;;;;21.27;6.90;;;;;;;7.09;100.00;96883.72;5053940;28;20057;-80
2023/01/06 01:55:20;;;;;;;17.52;6.50;;;;;;;7.05;100.00;96873.47;5053213;28;20045;-79
2023/01/06 01:57:54;;;;;;;18.23;6.65;;;;;;;7.03;100.00;96882.94;5053901;28;20064;-79
2023/01/06 02:00:21;;;;;;;12.45;5.68;;;;;;;7.01;100.00;96880.53;5053360;28;20657;-82
2023/01/06 02:02:50;;;;;;;25.95;6.90;;;;;;;7.03;100.00;96880.22;5054647;28;22072;-79
2023/01/06 02:05:20;;;;;;;19.98;5.93;;;;;;;6.97;100.00;96881.38;5052696;28;20084;-79
2023/01/06 02:07:47;;;;;;;24.27;6.95;;;;;;;6.88;100.00;96875.72;5052632;28;20592;-79
2023/01/06 02:10:16;;;;;;;25.67;6.35;;;;;;;6.82;100.00;96874.16;5052627;28;20072;-78
2023/01/06 02:12:46;;;;;;;20.85;6.68;;;;;;;6.75;100.00;96868.25;5053176;28;20531;-79
2023/01/06 02:15:19;;;;;;;17.88;6.28;;;;;;;6.73;100.00;96870.41;5053633;28;20044;-79
2023/01/06 02:18:33;;;;;;;24.15;6.88;;;;;;;6.70;100.00;96868.28;5052129;28;20110;-82
2023/01/06 02:21:14;;;;;;;10.73;5.03;;;;;;;6.67;100.00;96866.13;5007806;28;20036;-85
2023/01/06 02:24:07;;;;;;;22.02;5.82;;;;;;;6.63;100.00;96867.78;5054016;28;20508;-82
2023/01/06 02:27:02;;;;;;;15.30;5.20;;;;;;;6.62;100.00;96860.75;5052207;28;20044;-82
2023/01/06 02:30:05;;;;;;;18.27;5.88;;;;;;;6.56;100.00;96861.88;5047561;28;20045;-80
2023/01/06 02:33:01;;;;;;;17.63;5.70;;;;;;;6.51;100.00;96858.09;5052291;28;20044;-82
2023/01/06 02:35:44;;;;;;;18.17;5.55;;;;;;;6.50;100.00;96850.28;5052483;28;20413;-79
2023/01/06 02:38:26;;;;;;;17.58;5.93;;;;;;;6.42;100.00;96856.25;5046191;28;20049;-79
2023/01/06 02:41:06;;;;;;;14.05;5.78;;;;;;;6.41;100.00;96854.66;5055364;28;20045;-79
2023/01/06 02:43:44;;;;;;;17.15;6.13;;;;;;;6.38;100.00;96847.91;5052677;28;20041;-79
2023/01/06 02:46:20;;;;;;;14.68;5.85;;;;;;;6.36;100.00;96849.25;5055823;28;20127;-80
2023/01/06 02:48:58;;;;;;;24.35;6.43;;;;;;;6.36;100.00;96838.44;5052197;28;20048;-80
2023/01/06 02:51:34;;;;;;;12.75;5.68;;;;;;;6.30;100.00;96832.25;5063126;28;20052;-79
2023/01/06 02:54:09;;;;;;;14.38;5.20;;;;;;;6.30;100.00;96840.38;5051947;28;20052;-80
2023/01/06 02:56:40;;;;;;;13.77;4.95;;;;;;;6.27;100.00;96832.81;5051140;28;20037;-81
2023/01/06 02:59:13;;;;;;;12.73;4.72;;;;;;;6.21;100.00;96828.50;5051875;28;20060;-80
2023/01/06 03:01:42;;;;;;;;;;;;;;;6.16;100.00;96823.13;5053625;28;20045;-80
2023/01/06 03:04:17;;;;;;;15.02;5.18;;;;;;;6.10;100.00;96829.66;5056641;28;20253;-78
2023/01/06 03:06:47;;;;;;;16.27;4.90;;;;;;;6.06;100.00;96817.78;5052366;28;20040;-79
2023/01/06 03:09:16;;;;;;;12.23;5.03;;;;;;;6.04;100.00;96826.16;5051941;28;20045;-80
2023/01/06 03:11:45;;;;;;;16.77;5.10;;;;;;;6.04;100.00;96822.66;5052220;28;20045;-79
2023/01/06 03:14:17;;;;;;;17.95;5.60;;;;;;;6.00;100.00;96822.38;5051822;28;20045;-79
2023/01/06 03:16:44;;;;;;;19.15;5.15;;;;;;;5.98;100.00;96822.66;5058242;28;20048;-79
2023/01/06 03:19:12;;;;;;;17.30;5.78;;;;;;;5.90;100.00;96820.53;5051408;28;20052;-80
2023/01/06 03:21:43;;;;;;;29.98;6.65;;;;;;;5.90;100.00;96822.38;5051743;28;20041;-79
2023/01/06 03:24:10;;;;;;;14.95;5.55;;;;;;;5.89;100.00;96829.69;5051237;28;20053;-81
2023/01/06 03:26:38;;;;;;;20.60;5.40;;;;;;;5.87;100.00;96821.06;5058081;28;20045;-81
2023/01/06 03:29:09;;;;;;;16.30;5.20;;;;;;;5.83;100.00;96814.59;5054157;28;20507;-79
2023/01/06 03:31:45;;;;;;;23.98;5.93;;;;;;;5.79;100.00;96818.13;5053995;28;20049;-81
2023/01/06 03:34:22;;;;;;;15.60;4.68;;;;;;;5.76;100.00;96811.38;5051207;28;20459;-82
2023/01/06 03:36:59;;;;;;;15.38;4.90;;;;;;;5.75;100.00;96810.56;5055849;28;20527;-81
2023/01/06 03:39:35;;;;;;;12.73;4.97;;;;;;;5.73;100.00;96809.22;5056621;28;20061;-79
2023/01/06 03:45:10;;;;;;;21.02;5.45;;;;;;;5.69;100.00;96813.53;5050478;28;20139;-79
2023/01/06 03:47:46;;;;;;;14.65;4.60;;;;;;;5.66;100.00;96809.50;5055921;28;20041;-79
2023/01/06 03:50:22;;;;;;;11.50;4.25;;;;;;;5.65;100.00;96807.91;5057581;28;20135;-81
2023/01/06 03:52:56;;;;;;;20.00;4.70;;;;;;;5.64;100.00;96816.28;5050217;28;20056;-80
2023/01/06 03:55:30;;;;;;;8.73;3.63;;;;;;;5.62;100.00;96807.63;5055001;28;20632;-81
2023/01/06 03:57:59;;;;;;;14.68;4.65;;;;;;;5.60;100.00;96816.03;5044799;28;20052;-80
2023/01/06 04:00:30;;;;;;;10.40;3.75;;;;;;;5.60;100.00;96812.50;5054541;28;20057;-78
2023/01/06 04:02:57;;;;;;;9.18;3.75;;;;;;;5.58;100.00;96812.78;5054166;28;20049;-79
2023/01/06 04:05:27;;;;;;;12.63;4.35;;;;;;;5.55;100.00;96809.81;5050005;28;20052;-80
2023/01/06 04:07:54;;;;;;;16.75;4.88;;;;;;;5.53;100.00;96817.38;5044040;28;20072;-80
2023/01/06 04:10:22;;;;;;;13.90;4.13;;;;;;;5.53;100.00;96817.38;5058039;28;20048;-79
2023/01/06 04:12:48;;;;;;;14.65;4.25;;;;;;;5.52;100.00;96808.47;5052533;28;20041;-80
2023/01/06 04:15:16;;;;;;;10.32;3.65;;;;;;;5.52;100.00;96813.88;5052366;28;20063;-80
2023/01/06 04:17:44;;;;;;;16.10;4.20;;;;;;;5.53;100.00;96822.78;5052406;28;20041;-81
2023/01/06 04:20:14;;;;;;;13.20;4.05;;;;;;;5.52;100.00;96811.16;5051596;28;20045;-80
2023/01/06 04:22:42;;;;;;;24.38;4.28;;;;;;;5.52;100.00;96813.06;5052016;28;20409;-80
2023/01/06 04:25:10;;;;;;;13.52;3.90;;;;;;;5.54;100.00;96816.31;5051241;28;20099;-79
2023/01/06 04:27:36;;;;;;;16.08;3.85;;;;;;;5.54;100.00;96819.81;5052231;28;20459;-80
2023/01/06 04:30:04;;;;;;;15.68;3.65;;;;;;;5.51;100.00;96812.25;5052228;28;20049;-79
2023/01/06 04:32:30;;;;;;;14.80;3.83;;;;;;;5.49;100.00;96823.34;5051019;28;20049;-80
2023/01/06 04:34:57;;;;;;;20.30;3.95;;;;;;;5.52;100.00;96813.06;5051175;28;20091;-80
2023/01/06 04:37:23;;;;;;;14.13;3.63;;;;;;;5.47;100.00;96825.50;5051097;28;20432;-78
2023/01/06 04:39:51;;;;;;;12.68;3.33;;;;;;;5.44;100.00;96817.97;5051737;28;20056;-79
2023/01/06 04:42:18;;;;;;;11.43;3.20;;;;;;;5.39;100.00;96825.25;5051395;28;20045;-79
2023/01/06 04:44:48;;;;;;;18.85;3.92;;;;;;;5.33;100.00;96816.38;5050513;28;20045;-79
2023/01/06 04:47:14;;;;;;;13.13;3.25;;;;;;;5.31;100.00;96818.50;5051116;28;20052;-80
2023/01/06 04:49:41;;;;;;;17.45;3.88;;;;;;;5.28;100.00;96819.06;5052901;28;20104;-80
2023/01/06 04:52:07;;;;;;;7.43;2.50;;;;;;;5.26;100.00;96818.50;5051189;28;20060;-80
2023/01/06 04:54:35;;;;;;;16.27;3.78;;;;;;;5.23;100.00;96816.38;5051637;28;20051;-80
2023/01/06 04:57:03;;;;;;;9.85;2.95;;;;;;;5.20;100.00;96819.59;5051395;28;20045;-80
2023/01/06 04:59:30;;;;;;;10.60;3.17;;;;;;;5.22;100.00;96814.75;5054464;28;20496;-80
2023/01/06 05:01:56;;;;;;;11.45;3.22;;;;;;;5.19;100.00;96815.28;5051645;28;20053;-81
2023/01/06 05:04:23;;;;;;;12.13;3.10;;;;;;;5.15;100.00;96820.41;5053976;28;20520;-79
2023/01/06 05:06:50;;;;;;;8.77;2.75;;;;;;;5.11;100.00;96821.22;5054515;28;20553;-81
2023/01/06 05:09:16;;;;;;;12.32;3.38;;;;;;;5.01;100.00;96810.44;5059880;28;20558;-79
2023/01/06 05:11:43;;;;;;;21.60;3.78;;;;;;;4.97;100.00;96808.31;5048898;28;20048;-79
2023/01/06 05:14:11;;;;;;;13.55;2.97;;;;;;;4.94;100.00;96810.72;5064285;28;20415;-79
2023/01/06 05:16:38;;;;;;;9.95;2.85;;;;;;;4.91;100.00;96814.78;5054612;28;20199;-80
2023/01/06 05:19:05;;;;;;;8.98;2.80;;;;;;;4.90;100.00;96813.13;5054756;28;20051;-80
2023/01/06 05:21:31;;;;;;;13.77;3.03;;;;;;;4.88;100.00;96812.63;5055851;28;20041;-80
2023/01/06 05:23:58;;;;;;;9.85;2.72;;;;;;;4.86;100.00;96811.28;5056279;28;20567;-80
2023/01/06 05:26:26;;;;;;;12.57;3.15;;;;;;;4.81;100.00;96808.56;5057983;28;20088;-79
2023/01/06 05:28:53;;;;;;;11.70;2.88;;;;;;;4.82;100.00;96815.59;5055437;28;20131;-82
2023/01/06 05:31:21;;;;;;;11.10;2.72;;;;;;;4.82;100.00;96818.28;5055694;28;20079;-81
2023/01/06 05:33:48;;;;;;;9.57;2.67;;;;;;;4.81;100.00;96813.97;5057144;28;20416;-81
2023/01/06 05:36:16;;;;;;;12.60;2.78;;;;;;;4.81;100.00;96822.88;5060553;28;20064;-81
2023/01/06 05:38:43;;;;;;;9.10;2.40;;;;;;;4.80;100.00;96806.94;5056512;28;20044;-82
2023/01/06 05:41:10;;;;;;;3.20;1.95;;;;;;;4.78;100.00;96809.91;5050686;28;20045;-81
2023/01/06 05:43:37;;;;;;;13.02;2.97;;;;;;;4.77;100.00;96802.91;5055832;28;20044;-81
2023/01/06 05:46:07;;;;;;;7.05;2.25;;;;;;;4.77;100.00;96802.91;5055397;28;20053;-81
2023/01/06 05:48:37;;;;;;;10.18;2.72;;;;;;;4.75;100.00;96815.88;5055768;28;20403;-81
2023/01/06 05:51:05;;;;;;;11.15;2.80;;;;;;;4.75;100.00;96806.94;5053837;28;20048;-81
2023/01/06 05:53:32;;;;;;;10.55;2.78;;;;;;;4.72;100.00;96805.59;5058071;28;20049;-81
2023/01/06 05:56:00;;;;;;;14.15;2.88;;;;;;;4.72;100.00;96794.81;5071959;28;20045;-81
2023/01/06 05:58:27;;;;;;;22.33;3.53;;;;;;;4.69;100.00;96803.44;5071762;28;20037;-80
2023/01/06 06:00:53;;;;;;;28.70;3.90;;;;;;;4.68;100.00;96804.50;5046289;28;20117;-82
2023/01/06 06:03:20;;;;;;;10.75;2.47;;;;;;;4.69;100.00;96806.13;5071058;28;20045;-81
2023/01/06 06:05:48;;;;;;;27.45;4.05;;;;;;;4.70;100.00;96802.38;5070807;28;20037;-80
2023/01/06 06:08:14;;;;;;;12.77;2.53;;;;;;;4.71;100.00;96812.06;5070114;28;20045;-81
2023/01/06 06:10:41;;;;;;;23.60;3.58;;;;;;;4.69;100.00;96811.53;5067579;28;20053;-81
2023/01/06 06:13:07;;;;;;;16.73;2.95;;;;;;;4.70;100.00;96805.88;5066269;28;20040;-81
2023/01/06 06:15:34;;;;;;;23.17;3.55;;;;;;;4.71;100.00;96804.78;5069736;28;20041;-81
2023/01/06 06:18:02;;;;;;;18.25;2.88;;;;;;;4.69;100.00;96811.53;5064716;28;20045;-81
2023/01/06 06:20:28;;;;;;;12.32;2.75;;;;;;;4.66;100.00;96809.38;5061713;28;20068;-82
2023/01/06 06:22:56;;;;;;;11.30;2.20;;;;;;;4.67;100.00;96813.69;5062929;28;20053;-81
2023/01/06 06:25:23;;;;;;;11.48;2.38;;;;;;;4.64;100.00;96816.91;5061907;28;20049;-80
2023/01/06 06:27:49;;;;;;;25.33;3.35;;;;;;;4.65;100.00;96815.84;5061802;28;20041;-81
2023/01/06 06:30:16;;;;;;;11.07;2.42;;;;;;;4.63;100.00;96807.19;5062529;28;20064;-81
2023/01/06 06:32:43;;;;;;;25.80;3.33;;;;;;;4.62;100.00;96811.78;5045175;28;20060;-81
2023/01/06 06:35:10;;;;;;;14.65;2.55;;;;;;;4.61;100.00;96809.38;5067903;28;20044;-81
2023/01/06 06:37:36;;;;;;;19.33;3.00;;;;;;;4.59;100.00;96806.13;5062227;28;20048;-79
2023/01/06 06:40:05;;;;;;;12.10;2.45;;;;;;;4.59;100.00;96811.50;5061575;28;20045;-79
2023/01/06 06:42:32;;;;;;;11.80;2.08;;;;;;;4.56;100.00;96806.66;5059748;28;20049;-80
2023/01/06 06:44:59;;;;;;;22.77;3.65;;;;;;;4.54;100.00;96815.03;5066617;28;20131;-79
2023/01/06 06:47:25;;;;;;;17.15;2.80;;;;;;;4.51;100.00;96809.34;5063870;28;20047;-80
2023/01/06 06:49:52;;;;;;;12.63;2.38;;;;;;;4.50;100.00;96803.16;5058693;28;20044;-80
2023/01/06 06:52:18;;;;;;;10.13;2.10;;;;;;;4.51;100.00;96802.06;5057572;28;20046;-79
2023/01/06 06:54:45;;;;;;;14.38;2.42;;;;;;;4.47;100.00;96797.47;5057221;28;20285;-80
2023/01/06 06:57:12;;;;;;;14.20;2.40;;;;;;;4.44;100.00;96802.34;5056516;28;20052;-80
2023/01/06 06:59:39;;;;;;;10.23;2.00;;;;;;;4.41;100.00;96794.78;5056079;28;20041;-80
2023/01/06 07:02:06;;;;;;;14.95;2.58;;;;;;;4.40;100.00;96795.88;5060236;28;20500;-80
2023/01/06 07:04:34;;;;;;;17.15;2.63;;;;;;;4.37;100.00;96788.28;5055119;28;20037;-79
2023/01/06 07:07:00;;;;;;;15.07;2.47;;;;;;;4.35;100.00;96792.34;5054296;28;20058;-79
2023/01/06 07:09:27;;;;;;;14.95;2.38;;;;;;;4.35;100.00;96795.03;5055525;28;20047;-81
2023/01/06 07:11:53;;;;;;;17.20;2.58;;;;;;;4.33;100.00;96786.41;5054213;28;20416;-80
2023/01/06 07:14:21;;;;;;;15.07;2.40;;;;;;;4.34;100.00;96794.25;5054452;28;20045;-80
2023/01/06 07:16:47;;;;;;;13.80;2.10;;;;;;;4.33;100.00;96800.72;5054049;28;20485;-80
2023/01/06 07:19:14;;;;;;;21.75;3.05;;;;;;;4.32;100.00;96799.06;5053615;28;20041;-79
2023/01/06 07:21:40;;;;;;;27.45;3.30;;;;;;;4.34;100.00;96799.63;5053406;28;20044;-81
2023/01/06 07:24:07;;;;;;;9.80;2.13;;;;;;;4.33;100.00;96794.47;5054023;28;20040;-80
2023/01/06 07:26:35;;;;;;;16.77;2.92;;;;;;;4.35;100.00;96800.44;5053737;28;20049;-80
2023/01/06 07:29:01;;;;;;;12.27;2.13;;;;;;;4.31;100.00;96789.38;5054368;28;20071;-80
2023/01/06 07:31:30;;;;;;;10.90;2.30;;;;;;;4.31;100.00;96791.25;5053868;28;20044;-80
2023/01/06 07:33:56;;;;;;;18.25;2.95;;;;;;;4.33;100.00;96789.09;5055081;28;20428;-80
2023/01/06 07:36:23;;;;;;;13.00;2.70;;;;;;;4.35;100.00;96798.53;5053871;28;20041;-80
2023/01/06 07:38:50;;;;;;;15.80;2.40;;;;;;;4.35;100.00;96795.84;5064404;28;20606;-79
2023/01/06 07:41:16;;;;;;;12.73;2.60;;;;;;;4.38;100.00;96799.88;5054244;28;20453;-79
2023/01/06 07:43:43;;;;;;;17.35;2.85;;;;;;;4.38;100.00;96798.00;5056389;28;20045;-80
2023/01/06 07:46:09;;;;;;;12.40;2.35;;;;;;;4.41;100.00;96800.16;5056113;28;20041;-80
2023/01/06 07:48:37;;;;;;;26.40;3.75;;;;;;;4.44;100.00;96794.25;5062099;28;20045;-80
2023/01/06 07:51:04;;;;;;;14.32;2.95;;;;;;;4.42;100.00;96799.09;5062239;28;20048;-80
2023/01/06 07:53:31;;;;;;;17.85;3.08;;;;;;;4.42;100.00;96792.88;5054233;28;20052;-79
2023/01/06 07:55:57;;;;;;;13.35;2.47;;;;;;;4.46;100.00;96793.97;5053771;28;20049;-80
2023/01/06 07:58:24;;;;;;;9.82;2.15;;;;;;;4.52;100.00;96786.69;5053459;28;20064;-80
2023/01/06 08:00:50;;;;;;;26.45;3.25;;;;;;;4.57;100.00;96792.09;5053369;28;20055;-81
2023/01/06 08:03:17;;;;;;;17.17;2.70;;;;;;;4.64;100.00;96792.63;5053098;28;20564;-80
2023/01/06 08:05:45;;;;;;;24.60;3.53;;;;;;;4.70;100.00;96796.97;5053487;28;20044;-80
2023/01/06 08:08:12;;;;;;;10.38;2.00;;;;;;;4.86;100.00;96795.91;5053587;28;20592;-80
2023/01/06 08:10:40;;;;;;;19.38;2.72;;;;;;;5.15;100.00;96806.13;5057052;28;20045;-79
2023/01/06 08:13:06;;;;;;;10.05;1.90;;;;;;;5.41;100.00;96807.69;5054634;28;20064;-80
2023/01/06 08:15:33;;;;;;;13.63;2.42;;;;;;;5.68;99.16;96801.13;5054596;28;20040;-80
2023/01/06 08:18:00;;;;;;;16.73;2.95;;;;;;;5.87;98.25;96796.75;5055469;28;20128;-81
2023/01/06 08:20:27;;;;;;;13.73;2.70;;;;;;;6.11;97.12;96798.81;5054596;28;20041;-81
2023/01/06 08:22:57;;;;;;;21.55;3.00;;;;;;;6.17;95.77;96792.31;5055766;28;20044;-80
2023/01/06 08:25:24;;;;;;;17.70;2.80;;;;;;;6.19;95.48;96795.53;5054487;28;20048;-80
2023/01/06 08:27:51;;;;;;;11.02;2.10;;;;;;;6.14;94.79;96795.56;5053919;28;20471;-79
2023/01/06 08:30:20;;;;;;;13.27;2.60;;;;;;;6.09;94.97;96790.97;5054331;28;20049;-79
2023/01/06 08:32:47;;;;;;;22.88;3.03;;;;;;;6.09;94.67;96796.41;5055069;28;20409;-79
2023/01/06 08:35:13;;;;;;;12.70;2.30;;;;;;;6.14;94.35;96798.25;5053768;28;20489;-80
2023/01/06 08:37:40;;;;;;;24.90;3.13;;;;;;;6.13;93.51;96788.53;5060283;28;20052;-80
2023/01/06 08:40:09;;;;;;;18.45;2.63;;;;;;;6.03;91.48;96799.41;5058003;28;20056;-80
2023/01/06 08:42:36;;;;;;;23.90;3.47;;;;;;;5.94;90.83;96799.97;5058451;28;20052;-79
2023/01/06 08:45:02;;;;;;;7.35;1.90;;;;;;;6.07;90.64;96787.75;5058385;28;20041;-80
2023/01/06 08:47:29;;;;;;;17.88;3.45;;;;;;;6.15;90.63;96787.16;5058565;28;20124;-79
2023/01/06 08:49:55;;;;;;;14.90;2.47;;;;;;;6.15;90.17;96789.06;5062073;28;20389;-79
2023/01/06 08:52:22;;;;;;;14.98;2.25;;;;;;;6.18;90.58;96788.50;5057499;28;20071;-79
2023/01/06 08:54:49;;;;;;;20.60;2.88;;;;;;;6.32;90.33;96789.53;5057870;28;20048;-79
2023/01/06 08:57:17;;;;;;;16.05;2.50;;;;;;;6.47;88.86;96794.84;5058103;28;20053;-78
2023/01/06 08:59:43;;;;;;;20.65;3.00;;;;;;;6.49;88.70;96795.34;5059501;28;20041;-79
2023/01/06 09:02:10;;;;;;;14.38;2.25;;;;;;;6.48;89.21;96793.75;5059039;28;20037;-79
2023/01/06 09:04:37;;;;;;;19.75;2.88;;;;;;;6.50;88.94;96796.97;5057579;28;20037;-79
2023/01/06 09:07:03;;;;;;;14.45;2.17;;;;;;;6.56;89.25;96797.75;5058152;28;20090;-81
2023/01/06 09:09:30;;;;;;;14.02;2.25;;;;;;;6.65;89.27;96796.06;5056871;28;20053;-79
2023/01/06 09:11:56;;;;;;;14.25;2.35;;;;;;;6.69;89.54;96794.41;5059055;28;20057;-81
2023/01/06 09:14:24;;;;;;;8.57;2.17;;;;;;;6.72;89.40;96806.56;5058769;28;20041;-79
2023/01/06 09:16:51;;;;;;;23.35;4.10;;;;;;;6.80;88.83;96811.38;5060227;28;20060;-79
2023/01/06 09:19:19;;;;;;;15.95;3.30;;;;;;;6.86;89.02;96804.84;5061752;28;20049;-79
2023/01/06 09:21:46;;;;;;;20.38;3.97;;;;;;;6.85;86.98;96814.03;5060346;28;20128;-80
2023/01/06 09:24:13;;;;;;;17.45;2.85;;;;;;;6.97;86.37;96814.47;5063353;28;20416;-79
2023/01/06 09:26:40;;;;;;;21.48;3.25;;;;;;;7.17;87.02;96831.66;5061337;28;20811;-79
2023/01/06 09:29:06;;;;;;;10.70;2.10;;;;;;;7.19;85.16;96835.69;5060664;28;20707;-79
2023/01/06 09:31:34;;;;;;;25.73;2.95;;;;;;;7.25;83.83;96845.38;5058864;28;20500;-78
2023/01/06 09:34:01;;;;;;;15.80;1.95;;;;;;;7.38;83.09;96843.91;5060857;28;20056;-78
2023/01/06 09:36:27;;;;;;;16.05;2.05;;;;;;;7.48;82.30;96843.03;5055353;28;20627;-79
2023/01/06 09:38:54;;;;;;;26.67;3.00;;;;;;;7.43;79.35;96852.00;5057033;28;20501;-79
2023/01/06 09:41:56;;;;;;;11.23;1.70;;;;;;;7.67;80.79;96856.63;5057513;28;20132;-79
2023/01/06 09:44:28;;;;;;;13.65;1.92;;;;;;;7.85;80.45;96855.91;5051918;28;20056;-81
2023/01/06 09:46:58;;;;;;;14.95;2.22;;;;;;;7.83;78.57;96853.50;5065761;28;20045;-79
2023/01/06 09:49:28;;;;;;;14.75;2.13;;;;;;;8.03;77.93;96848.91;5055453;28;20128;-79
2023/01/06 09:52:00;;;;;;;12.43;2.08;;;;;;;8.21;78.15;96844.66;5048952;28;20048;-79
2023/01/06 09:54:31;;;;;;;9.43;1.52;;;;;;;8.25;77.80;96845.69;5056482;28;20419;-79
2023/01/06 09:57:04;;;;;;;20.73;2.85;;;;;;;8.22;75.96;96840.84;5052131;28;20067;-80
2023/01/06 09:59:36;;;;;;;12.00;2.05;;;;;;;8.60;76.81;96841.72;5060400;28;20037;-79
2023/01/06 10:02:12;;;;;;;15.75;2.20;;;;;;;8.92;76.07;96838.25;5058747;28;20048;-79
2023/01/06 10:04:39;;;;;;;13.77;2.20;;;;;;;9.03;75.08;96838.88;5058585;28;20049;-80
2023/01/06 10:07:13;;;;;;;8.48;1.70;;;;;;;8.84;75.63;96841.66;5057164;28;20053;-79
2023/01/06 10:09:52;;;;;;;16.33;2.50;;;;;;;9.01;76.43;96839.19;5065472;28;20045;-77
2023/01/06 10:12:43;;;;;;;12.75;2.17;;;;;;;9.27;74.58;96839.59;5058135;28;20049;-79
2023/01/06 10:15:17;;;;;;;8.85;1.63;;;;;;;9.48;74.23;96840.03;5054553;28;20045;-80
2023/01/06 10:17:57;;;;;;;17.90;2.50;;;;;;;9.21;74.37;96829.91;5065483;28;20047;-79
2023/01/06 10:21:05;;;;;;;10.10;1.73;;;;;;;9.57;73.76;96827.38;5060813;28;20397;-80
2023/01/06 10:23:44;;;;;;;12.88;2.28;;;;;;;9.45;72.99;96818.91;5054848;28;20033;-81
2023/01/06 10:26:13;;;;;;;13.55;2.03;;;;;;;9.24;74.29;96817.63;5057545;28;20091;-78
2023/01/06 10:28:42;;;;;;;18.40;2.85;;;;;;;9.24;74.76;96817.63;5057359;28;20041;-82
2023/01/06 10:31:12;;;;;;;11.40;1.98;;;;;;;9.62;74.81;96818.34;5058521;28;20049;-79
2023/01/06 10:33:46;;;;;;;12.20;2.10;;;;;;;9.82;73.54;96828.81;5057766;28;20037;-81
2023/01/06 10:36:15;;;;;;;6.90;1.58;;;;;;;10.09;72.56;96817.13;5057220;28;20052;-81
2023/01/06 10:38:44;;;;;;;14.55;2.45;;;;;;;10.03;71.91;96818.34;5058512;28;20041;-81
2023/01/06 10:41:19;;;;;;;18.48;2.40;;;;;;;9.67;73.98;96827.19;5060687;28;20048;-80
2023/01/06 10:43:45;;;;;;;17.50;2.45;;;;;;;9.60;75.62;96820.53;5062733;28;20524;-79
2023/01/06 10:46:12;;;;;;;15.88;2.17;;;;;;;9.54;75.88;96814.38;5060597;28;20472;-79
2023/01/06 10:48:40;;;;;;;9.93;2.00;;;;;;;9.45;76.46;96818.91;5067614;28;20053;-80
2023/01/06 10:51:31;;;;;;;11.88;2.13;;;;;;;9.61;76.93;96822.16;5062350;28;20048;-79
2023/01/06 10:54:00;;;;;;;7.50;1.58;;;;;;;9.50;76.70;96813.38;5063049;28;20496;-79
2023/01/06 10:56:29;;;;;;;5.35;1.70;;;;;;;9.41;78.26;96802.38;5057996;28;20052;-78
2023/01/06 10:59:00;;;;;;;10.05;2.45;;;;;;;9.59;76.24;96814.28;5056238;28;20060;-80
2023/01/06 11:01:28;;;;;;;10.80;2.50;;;;;;;9.93;76.31;96807.69;5063142;28;20104;-78
2023/01/06 11:04:06;;;;;;;7.93;2.33;;;;;;;10.13;76.26;96812.72;5064033;28;20049;-79
2023/01/06 11:06:36;;;;;;;9.82;2.55;;;;;;;10.14;74.71;96808.88;5063159;28;20095;-80
2023/01/06 11:09:08;;;;;;;11.30;2.40;;;;;;;10.30;75.14;96811.31;5062231;28;20041;-81
2023/01/06 11:11:47;;;;;;;10.70;2.55;;;;;;;10.09;75.49;96800.81;5063013;28;20041;-79
2023/01/06 11:14:18;;;;;;;11.07;2.42;;;;;;;10.08;75.74;96809.28;5061928;28;20045;-78
2023/01/06 11:16:54;;;;;;;11.15;2.67;;;;;;;9.92;75.67;96806.06;5064772;28;20060;-79
2023/01/06 11:19:24;;;;;;;7.07;1.95;;;;;;;9.76;75.43;96802.00;5064054;28;20049;-80
2023/01/06 11:21:52;;;;;;;9.30;2.45;;;;;;;9.68;75.33;96801.59;5069805;28;20045;-79
2023/01/06 11:24:21;;;;;;;14.32;3.22;;;;;;;9.53;77.35;96801.91;5064900;28;20052;-80
2023/01/06 11:26:52;;;;;;;12.77;2.83;;;;;;;9.51;77.07;96795.97;5063177;28;20056;-79
2023/01/06 11:29:25;;;;;;;12.70;3.00;;;;;;;9.70;76.49;96792.34;5058334;28;20053;-79
2023/01/06 11:31:52;;;;;;;8.75;2.55;;;;;;;9.61;76.11;96790.34;5068938;28;20037;-82
2023/01/06 11:34:23;;;;;;;10.32;2.30;;;;;;;9.90;75.85;96781.88;5067637;28;20056;-80
2023/01/06 11:36:51;;;;;;;18.98;2.65;;;;;;;10.08;75.64;96787.53;5063790;28;20036;-80
2023/01/06 11:39:26;;;;;;;18.85;2.97;;;;;;;9.88;75.45;96781.38;5065212;28;20057;-81
2023/01/06 11:41:55;;;;;;;23.88;2.97;;;;;;;9.78;76.67;96778.06;5064358;28;20075;-81
2023/01/06 11:44:30;;;;;;;14.45;2.28;;;;;;;10.07;76.19;96778.53;5062424;28;20045;-79